createdAt,value
2024-03-05T00:01:16.661Z,33.42
2024-03-05T00:03:44.086Z,45.90
2024-03-05T00:06:12.147Z,43.05
2024-03-05T00:08:39.265Z,47.00
2024-03-05T00:11:06.638Z,43.38
2024-03-05T00:13:35.479Z,36.63
2024-03-05T00:16:05.533Z,40.60
2024-03-05T00:18:32.592Z,34.58
2024-03-05T00:21:00.035Z,36.05
2024-03-05T00:23:27.237Z,33.42
2024-03-05T00:25:54.545Z,30.95
2024-03-05T00:28:21.877Z,55.90
2024-03-05T00:30:50.632Z,34.55
2024-03-05T00:33:17.868Z,26.13
2024-03-05T00:35:45.825Z,63.17
2024-03-05T00:38:18.669Z,57.83
2024-03-05T00:40:52.909Z,67.05
2024-03-05T00:43:20.239Z,56.83
2024-03-05T00:45:47.568Z,98.75
2024-03-05T00:48:16.307Z,58.92
2024-03-05T00:50:43.811Z,49.97
2024-03-05T00:53:10.963Z,91.18
2024-03-05T00:55:38.598Z,55.20
2024-03-05T00:58:05.837Z,68.22
2024-03-05T01:00:33.909Z,92.35
2024-03-05T01:03:01.045Z,69.35
2024-03-05T01:05:29.544Z,79.50
2024-03-05T01:07:57.164Z,67.47
2024-03-05T01:10:24.346Z,50.83
2024-03-05T01:12:52.099Z,50.63
2024-03-05T01:15:19.096Z,54.28
2024-03-05T01:17:46.225Z,37.70
2024-03-05T01:20:17.063Z,44.88
2024-03-05T01:22:47.708Z,37.92
2024-03-05T01:25:18.024Z,39.03
2024-03-05T01:27:45.273Z,28.83
2024-03-05T01:30:14.799Z,21.58
2024-03-05T01:32:44.761Z,21.23
2024-03-05T01:35:14.134Z,18.67
2024-03-05T01:37:41.595Z,19.90
2024-03-05T01:40:11.152Z,17.90
2024-03-05T01:42:39.234Z,18.42
2024-03-05T01:45:07.926Z,17.27
2024-03-05T01:47:35.217Z,16.83
2024-03-05T01:50:04.967Z,18.58
2024-03-05T01:52:33.193Z,19.10
2024-03-05T01:55:11.189Z,18.98
2024-03-05T01:57:41.085Z,18.08
2024-03-05T02:00:16.438Z,18.48
2024-03-05T02:02:45.284Z,16.92
2024-03-05T02:05:13.943Z,17.90
2024-03-05T02:07:42.123Z,18.02
2024-03-05T02:10:10.697Z,18.80
2024-03-05T02:12:41.891Z,16.05
2024-03-05T02:15:13.016Z,16.52
2024-03-05T02:17:40.836Z,16.38
2024-03-05T02:20:11.215Z,16.10
2024-03-05T02:22:39.960Z,16.67
2024-03-05T02:25:08.605Z,17.60
2024-03-05T02:27:38.184Z,15.30
2024-03-05T02:30:11.575Z,16.13
2024-03-05T02:32:42.066Z,16.30
2024-03-05T02:35:10.607Z,16.27
2024-03-05T02:37:40.250Z,15.27
2024-03-05T02:40:09.848Z,16.52
2024-03-05T02:42:37.266Z,16.30
2024-03-05T02:45:08.943Z,15.50
2024-03-05T02:47:43.156Z,15.00
2024-03-05T02:50:12.256Z,15.23
2024-03-05T02:52:42.099Z,17.00
2024-03-05T02:55:10.965Z,14.40
2024-03-05T02:57:40.289Z,15.63
2024-03-05T03:00:20.162Z,15.18
2024-03-05T03:02:49.576Z,16.00
2024-03-05T03:05:17.640Z,15.95
2024-03-05T03:07:46.230Z,15.02
2024-03-05T03:10:13.785Z,15.55
2024-03-05T03:12:41.970Z,16.77
2024-03-05T03:15:10.052Z,13.60
2024-03-05T03:17:43.678Z,14.68
2024-03-05T03:20:16.815Z,14.63
2024-03-05T03:22:46.230Z,15.93
2024-03-05T03:25:14.311Z,14.80
2024-03-05T03:27:41.850Z,15.48
2024-03-05T03:30:19.125Z,15.32
2024-03-05T03:32:47.387Z,13.75
2024-03-05T03:35:15.558Z,14.13
2024-03-05T03:37:43.355Z,14.75
2024-03-05T03:40:22.016Z,15.45
2024-03-05T03:42:52.172Z,15.25
2024-03-05T03:45:20.366Z,15.80
2024-03-05T03:47:47.923Z,13.57
2024-03-05T03:50:15.924Z,14.43
2024-03-05T03:52:45.097Z,14.75
2024-03-05T03:55:14.228Z,13.50
2024-03-05T03:57:42.644Z,14.27
2024-03-05T04:00:18.415Z,13.73
2024-03-05T04:02:47.845Z,15.50
2024-03-05T04:05:15.361Z,17.45
2024-03-05T04:07:42.566Z,18.80
2024-03-05T04:10:13.250Z,17.25
2024-03-05T04:12:41.942Z,15.95
2024-03-05T04:15:10.539Z,16.38
2024-03-05T04:17:38.152Z,16.15
2024-03-05T04:20:09.780Z,26.33
2024-03-05T04:22:38.901Z,22.17
2024-03-05T04:25:07.477Z,18.83
2024-03-05T04:27:36.695Z,16.90
2024-03-05T04:30:11.794Z,19.58
2024-03-05T04:32:42.109Z,19.40
2024-03-05T04:35:12.490Z,18.15
2024-03-05T04:37:41.179Z,20.80
2024-03-05T04:40:14.145Z,17.13
2024-03-05T04:42:41.241Z,16.92
2024-03-05T04:45:10.552Z,18.33
2024-03-05T04:47:38.191Z,17.55
2024-03-05T04:50:07.559Z,18.85
2024-03-05T04:52:34.901Z,25.75
2024-03-05T04:55:02.748Z,24.40
2024-03-05T04:57:30.810Z,21.58
2024-03-05T04:59:59.153Z,19.45
2024-03-05T05:02:27.562Z,18.77
2024-03-05T05:04:54.658Z,19.77
2024-03-05T05:07:25.159Z,21.65
2024-03-05T05:12:19.463Z,19.10
2024-03-05T05:14:46.541Z,19.98
2024-03-05T05:17:14.804Z,21.25
2024-03-05T05:19:43.411Z,20.75
2024-03-05T05:22:10.616Z,18.80
2024-03-05T05:24:38.048Z,17.45
2024-03-05T05:27:05.713Z,21.85
2024-03-05T05:29:40.434Z,17.75
2024-03-05T05:32:09.657Z,15.48
2024-03-05T05:34:37.492Z,17.35
2024-03-05T05:37:06.492Z,17.55
2024-03-05T05:39:34.485Z,17.88
2024-03-05T05:42:01.941Z,18.02
2024-03-05T05:44:30.461Z,18.35
2024-03-05T05:46:57.922Z,17.23
2024-03-05T05:49:25.321Z,18.90
2024-03-05T06:12:12.098Z,17.33
2024-03-05T06:14:39.426Z,16.70
2024-03-05T06:17:06.724Z,17.40
2024-03-05T06:19:34.254Z,15.65
2024-03-05T06:22:01.765Z,15.65
2024-03-05T06:24:29.688Z,17.08
2024-03-05T06:26:57.221Z,18.05
2024-03-05T06:29:25.653Z,20.58
2024-03-05T06:31:52.896Z,19.02
2024-03-05T06:34:20.313Z,20.30
2024-03-05T06:36:49.745Z,19.52
2024-03-05T06:39:21.105Z,20.45
2024-03-05T06:41:49.194Z,20.50
2024-03-05T06:44:21.226Z,28.38
2024-03-05T06:46:51.107Z,22.40
2024-03-05T06:49:28.067Z,21.85
2024-03-05T06:52:15.381Z,23.15
2024-03-05T06:55:01.386Z,24.85
2024-03-05T06:57:28.891Z,18.38
2024-03-05T06:59:56.514Z,25.98
2024-03-05T07:02:28.345Z,28.52
2024-03-05T07:04:55.799Z,36.58
2024-03-05T07:07:23.517Z,40.10
2024-03-05T07:09:50.770Z,45.85
2024-03-05T07:12:17.947Z,29.45
2024-03-05T07:14:45.449Z,30.70
2024-03-05T07:17:12.548Z,32.30
2024-03-05T07:19:41.385Z,35.38
2024-03-05T07:22:08.875Z,29.58
2024-03-05T07:24:36.853Z,40.63
2024-03-05T07:27:08.996Z,36.60
2024-03-05T07:29:36.804Z,32.20
2024-03-05T07:32:04.625Z,35.47
2024-03-05T07:34:32.606Z,36.47
2024-03-05T07:37:01.282Z,41.95
2024-03-05T07:39:28.565Z,27.27
2024-03-05T07:41:55.620Z,24.88
2024-03-05T07:44:22.697Z,20.38
2024-03-05T07:46:49.982Z,19.98
2024-03-05T07:49:17.153Z,22.65
2024-03-05T07:51:45.617Z,25.63
2024-03-05T07:54:15.216Z,24.58
2024-03-05T07:56:44.221Z,24.27
2024-03-05T07:59:11.958Z,20.60
2024-03-05T08:01:39.154Z,31.33
2024-03-05T08:04:06.972Z,22.30
2024-03-05T08:06:34.500Z,19.33
2024-03-05T08:09:01.653Z,20.40
2024-03-05T08:11:30.133Z,21.30
2024-03-05T08:13:57.247Z,19.58
2024-03-05T08:16:24.322Z,23.35
2024-03-05T08:18:51.548Z,20.08
2024-03-05T08:21:18.557Z,18.92
2024-03-05T08:23:45.642Z,21.70
2024-03-05T08:26:12.938Z,19.75
2024-03-05T08:28:41.473Z,20.75
2024-03-05T08:31:11.560Z,24.23
2024-03-05T08:33:38.719Z,24.13
2024-03-05T08:36:07.902Z,23.17
2024-03-05T08:38:35.114Z,22.05
2024-03-05T08:41:02.857Z,19.85
2024-03-05T08:43:31.653Z,19.90
2024-03-05T08:46:00.156Z,19.50
2024-03-05T08:48:28.754Z,22.42
2024-03-05T08:50:56.028Z,17.63
2024-03-05T08:53:23.312Z,17.77
2024-03-05T08:55:50.686Z,18.23
2024-03-05T08:58:17.974Z,18.00
2024-03-05T09:00:46.092Z,17.90
2024-03-05T09:03:14.919Z,16.27
2024-03-05T09:05:45.296Z,17.02
2024-03-05T09:08:15.085Z,16.95
2024-03-05T09:10:42.423Z,16.42
2024-03-05T09:13:10.062Z,16.88
2024-03-05T09:15:41.572Z,17.92
2024-03-05T09:18:14.126Z,18.33
2024-03-05T09:20:43.833Z,17.25
2024-03-05T09:23:11.391Z,17.98
2024-03-05T09:25:42.598Z,19.02
2024-03-05T09:28:10.572Z,18.42
2024-03-05T09:30:38.852Z,17.90
2024-03-05T09:33:10.633Z,18.20
2024-03-05T09:35:38.649Z,16.73
2024-03-05T09:38:08.485Z,16.45
2024-03-05T09:40:36.265Z,18.40
2024-03-05T09:43:05.718Z,17.20
2024-03-05T09:45:37.902Z,16.67
2024-03-05T09:48:09.131Z,18.60
2024-03-05T09:50:38.104Z,17.85
2024-03-05T09:53:06.948Z,19.73
2024-03-05T09:55:34.288Z,17.73
2024-03-05T09:58:07.801Z,18.65
2024-03-05T10:00:38.524Z,18.83
2024-03-05T10:03:09.666Z,18.23
2024-03-05T10:05:38.394Z,17.60
2024-03-05T10:08:08.090Z,18.05
2024-03-05T10:10:35.802Z,18.13
2024-03-05T10:13:03.232Z,18.08
2024-03-05T10:15:30.563Z,17.27
2024-03-05T10:17:58.622Z,18.38
2024-03-05T10:20:28.276Z,17.65
2024-03-05T10:23:01.315Z,17.70
2024-03-05T10:25:36.958Z,18.55
2024-03-05T10:28:14.147Z,19.58
2024-03-05T10:30:44.259Z,20.20
2024-03-05T10:33:13.843Z,18.08
2024-03-05T10:35:43.091Z,18.45
2024-03-05T10:38:15.337Z,18.88
2024-03-05T10:40:46.352Z,19.52
2024-03-05T10:43:19.630Z,20.27
2024-03-05T10:45:48.622Z,20.58
2024-03-05T10:48:19.963Z,20.92
2024-03-05T10:50:51.254Z,18.83
2024-03-05T10:53:20.516Z,18.85
2024-03-05T10:55:54.328Z,18.40
2024-03-05T10:58:41.654Z,18.77
2024-03-05T11:01:14.552Z,17.67
2024-03-05T11:03:42.248Z,17.88
2024-03-05T11:06:10.404Z,18.45
2024-03-05T11:08:38.379Z,18.48
2024-03-05T11:11:11.258Z,16.90
2024-03-05T11:13:42.001Z,18.15
2024-03-05T11:16:10.522Z,18.02
2024-03-05T11:18:39.499Z,16.45
2024-03-05T11:21:10.581Z,16.55
2024-03-05T11:23:43.007Z,18.20
2024-03-05T11:26:19.524Z,17.50
2024-03-05T11:31:20.987Z,16.00
2024-03-05T11:34:00.206Z,17.58
2024-03-05T11:36:27.445Z,16.88
2024-03-05T11:39:05.706Z,14.90
2024-03-05T11:41:36.988Z,16.90
2024-03-05T11:44:05.264Z,16.10
2024-03-05T11:46:47.144Z,15.93
2024-03-05T11:49:16.045Z,17.23
2024-03-05T11:51:45.598Z,18.05
2024-03-05T11:54:15.784Z,17.27
2024-03-05T11:56:57.457Z,17.05
2024-03-05T11:59:34.350Z,16.45
2024-03-05T12:02:02.523Z,17.17
2024-03-05T12:04:30.627Z,18.08
2024-03-05T12:07:18.699Z,16.63
2024-03-05T12:09:46.014Z,15.88
2024-03-05T12:12:17.500Z,15.63
2024-03-05T12:14:56.375Z,14.98
2024-03-05T12:17:25.956Z,15.13
2024-03-05T12:19:58.936Z,14.85
2024-03-05T12:22:26.894Z,15.00
2024-03-05T12:24:54.591Z,16.55
2024-03-05T12:27:23.766Z,15.55
2024-03-05T12:29:53.257Z,17.00
2024-03-05T12:32:21.317Z,14.18
2024-03-05T12:34:49.726Z,12.93
2024-03-05T12:37:18.370Z,12.82
2024-03-05T12:39:45.664Z,12.80
2024-03-05T12:42:21.767Z,12.88
2024-03-05T12:44:50.243Z,10.85
2024-03-05T12:47:18.206Z,11.10
2024-03-05T12:49:48.492Z,11.45
2024-03-05T12:54:57.482Z,10.05
2024-03-05T12:57:25.561Z,11.00
2024-03-05T12:59:54.439Z,11.75
2024-03-05T13:02:21.583Z,10.73
2024-03-05T13:04:48.822Z,14.90
2024-03-05T13:07:16.139Z,11.07
2024-03-05T13:09:43.344Z,14.20
2024-03-05T13:12:10.874Z,11.65
2024-03-05T13:14:38.070Z,14.60
2024-03-05T13:17:08.249Z,12.43
2024-03-05T13:19:35.529Z,12.65
2024-03-05T13:22:02.842Z,11.13
2024-03-05T13:24:30.331Z,14.30
2024-03-05T13:27:01.179Z,13.23
2024-03-05T13:29:28.274Z,11.43
2024-03-05T13:31:55.551Z,11.35
2024-03-05T13:34:24.320Z,10.85
2024-03-05T13:36:51.730Z,11.25
2024-03-05T13:39:23.581Z,10.63
2024-03-05T13:41:55.490Z,11.30
2024-03-05T13:44:23.996Z,12.43
2024-03-05T13:46:51.872Z,11.23
2024-03-05T13:49:21.914Z,11.35
2024-03-05T13:51:50.661Z,13.63
2024-03-05T13:54:20.262Z,11.50
2024-03-05T13:56:49.672Z,11.70
2024-03-05T13:59:17.187Z,10.07
2024-03-05T14:01:44.784Z,10.77
2024-03-05T14:04:12.071Z,10.40
2024-03-05T14:06:39.704Z,11.23
2024-03-05T14:09:12.124Z,10.50
2024-03-05T14:11:42.563Z,11.45
2024-03-05T14:16:39.570Z,10.27
2024-03-05T14:19:07.006Z,11.13
2024-03-05T14:21:36.897Z,9.75
2024-03-05T14:24:05.091Z,12.88
2024-03-05T14:26:34.125Z,11.35
2024-03-05T14:29:05.154Z,12.07
2024-03-05T14:31:34.431Z,10.90
2024-03-05T14:34:01.813Z,11.27
2024-03-05T14:36:29.097Z,10.07
2024-03-05T14:38:56.631Z,13.25
2024-03-05T14:41:23.805Z,10.80
2024-03-05T14:43:52.238Z,10.80
2024-03-05T14:46:19.623Z,11.27
2024-03-05T14:48:46.721Z,11.15
2024-03-05T14:51:14.848Z,10.65
2024-03-05T14:53:42.112Z,11.77
2024-03-05T14:56:09.708Z,12.30
2024-03-05T14:58:38.108Z,13.30
2024-03-05T15:01:06.732Z,12.18
2024-03-05T15:03:33.922Z,12.88
2024-03-05T15:06:03.525Z,14.98
2024-03-05T15:08:30.796Z,12.18
2024-03-05T15:11:02.563Z,14.35
2024-03-05T15:13:29.835Z,15.38
2024-03-05T15:15:57.413Z,13.15
2024-03-05T15:18:25.871Z,14.07
2024-03-05T15:20:53.200Z,13.52
2024-03-05T15:23:20.624Z,12.93
2024-03-05T15:25:48.746Z,12.77
2024-03-05T15:28:15.895Z,11.98
2024-03-05T15:30:44.368Z,12.82
2024-03-05T15:33:12.859Z,13.13
2024-03-05T15:35:41.563Z,13.32
2024-03-05T15:38:09.303Z,12.40
2024-03-05T15:40:38.897Z,12.30
2024-03-05T15:43:08.354Z,13.60
2024-03-05T15:45:39.040Z,12.38
2024-03-05T15:48:10.914Z,12.50
2024-03-05T15:50:40.119Z,13.48
2024-03-05T15:53:09.337Z,13.75
2024-03-05T15:55:40.198Z,11.75
2024-03-05T15:58:07.591Z,13.57
2024-03-05T16:00:36.997Z,12.15
2024-03-05T16:03:07.294Z,13.73
2024-03-05T16:05:43.275Z,12.73
2024-03-05T16:08:21.987Z,14.57
2024-03-05T16:10:49.956Z,13.98
2024-03-05T16:13:17.616Z,12.02
2024-03-05T16:15:46.900Z,13.38
2024-03-05T16:18:15.091Z,13.70
2024-03-05T16:20:42.925Z,13.85
2024-03-05T16:23:11.541Z,14.90
2024-03-05T16:25:41.601Z,14.65
2024-03-05T16:28:18.175Z,15.88
2024-03-05T16:30:45.306Z,14.82
2024-03-05T16:33:12.680Z,15.35
2024-03-05T16:35:39.817Z,15.60
2024-03-05T16:38:07.711Z,16.40
2024-03-05T16:40:37.155Z,14.93
2024-03-05T16:43:07.897Z,16.52
2024-03-05T16:45:36.602Z,16.60
2024-03-05T16:48:07.060Z,16.02
2024-03-05T16:50:34.785Z,15.05
2024-03-05T16:53:02.681Z,14.93
2024-03-05T16:55:30.448Z,16.50
2024-03-05T16:58:00.211Z,15.93
2024-03-05T17:00:35.343Z,15.45
2024-03-05T17:03:08.664Z,15.15
2024-03-05T17:05:38.146Z,15.43
2024-03-05T17:08:11.106Z,11.57
2024-03-05T17:10:40.642Z,11.23
2024-03-05T17:13:08.320Z,11.88
2024-03-05T17:15:42.016Z,12.23
2024-03-05T17:18:12.005Z,12.77
2024-03-05T17:20:39.248Z,12.15
2024-03-05T17:23:07.052Z,12.90
2024-03-05T17:25:39.725Z,11.10
2024-03-05T17:28:11.888Z,11.07
2024-03-05T17:30:40.906Z,11.55
2024-03-05T17:33:10.836Z,11.00
2024-03-05T17:35:40.784Z,10.50
2024-03-05T17:38:10.928Z,9.57
2024-03-05T17:40:39.181Z,9.60
2024-03-05T17:43:06.641Z,9.90
2024-03-05T17:45:33.757Z,8.77
2024-03-05T17:48:06.989Z,8.85
2024-03-05T17:50:38.108Z,6.70
2024-03-05T17:55:35.854Z,7.28
2024-03-05T17:58:05.570Z,7.43
2024-03-05T18:00:45.300Z,9.27
2024-03-05T18:03:18.943Z,15.40
2024-03-05T18:05:46.934Z,18.15
2024-03-05T18:08:14.593Z,12.25
2024-03-05T18:10:42.592Z,11.60
2024-03-05T18:13:11.254Z,11.95
2024-03-05T18:15:38.359Z,13.40
2024-03-05T18:18:10.305Z,12.52
2024-03-05T18:20:38.865Z,12.77
2024-03-05T18:23:07.179Z,11.88
2024-03-05T18:25:37.626Z,11.50
2024-03-05T18:28:06.862Z,14.13
2024-03-05T18:30:38.829Z,11.70
2024-03-05T18:33:12.120Z,12.02
2024-03-05T18:35:41.966Z,14.10
2024-03-05T18:43:10.755Z,9.68
2024-03-05T18:45:38.647Z,8.40
2024-03-05T18:48:10.476Z,9.52
2024-03-05T18:50:38.503Z,10.70
2024-03-05T18:53:08.684Z,10.23
2024-03-05T18:55:37.268Z,9.93
2024-03-05T18:58:07.555Z,9.02
2024-03-05T19:00:34.873Z,10.57
2024-03-05T19:03:02.289Z,9.77
2024-03-05T19:05:29.318Z,9.07
2024-03-05T19:07:56.363Z,9.93
2024-03-05T19:10:25.887Z,10.45
2024-03-05T19:12:54.856Z,9.05
2024-03-05T19:15:23.695Z,8.95
2024-03-05T19:17:51.056Z,9.85
2024-03-05T19:20:18.454Z,8.98
2024-03-05T19:22:45.881Z,7.68
2024-03-05T19:25:13.584Z,9.55
2024-03-05T19:27:43.175Z,8.75
2024-03-05T19:30:12.809Z,8.68
2024-03-05T19:32:40.374Z,10.75
2024-03-05T19:35:11.403Z,11.63
2024-03-05T19:37:41.482Z,11.07
2024-03-05T19:40:16.081Z,11.38
2024-03-05T19:42:47.219Z,13.02
2024-03-05T19:45:14.755Z,11.05
2024-03-05T19:47:42.361Z,10.82
2024-03-05T19:50:14.658Z,11.75
2024-03-05T19:52:42.638Z,12.52
2024-03-05T19:55:10.558Z,9.35
2024-03-05T19:57:38.194Z,8.25
2024-03-05T20:00:18.531Z,8.73
2024-03-05T20:02:48.199Z,9.00
2024-03-05T20:05:15.962Z,11.20
2024-03-05T20:07:43.166Z,9.57
2024-03-05T20:10:11.063Z,8.40
2024-03-05T20:12:39.449Z,9.23
2024-03-05T20:15:14.660Z,9.98
2024-03-05T20:17:43.765Z,9.23
2024-03-05T20:20:16.837Z,9.43
2024-03-05T20:22:48.313Z,9.10
2024-03-05T20:25:19.253Z,10.77
2024-03-05T20:27:53.288Z,11.43
2024-03-05T20:30:23.498Z,11.07
2024-03-05T20:32:51.635Z,10.00
2024-03-05T20:35:24.159Z,9.10
2024-03-05T20:37:52.329Z,10.15
2024-03-05T20:40:22.634Z,10.13
2024-03-05T20:42:50.106Z,10.75
2024-03-05T20:45:18.294Z,10.65
2024-03-05T20:47:47.514Z,9.88
2024-03-05T20:50:15.370Z,9.90
2024-03-05T20:52:42.909Z,8.05
2024-03-05T20:55:10.234Z,8.27
2024-03-05T20:57:38.679Z,8.45
2024-03-05T21:00:12.785Z,7.70
2024-03-05T21:02:41.382Z,9.18
2024-03-05T21:05:12.315Z,10.30
2024-03-05T21:07:40.521Z,7.40
2024-03-05T21:10:11.289Z,7.20
2024-03-05T21:12:40.067Z,7.72
2024-03-05T21:15:13.482Z,7.32
2024-03-05T21:17:41.953Z,7.45
2024-03-05T21:20:12.831Z,8.52
2024-03-05T21:22:43.113Z,8.73
2024-03-05T21:25:11.125Z,7.15
2024-03-05T21:27:40.177Z,6.80
2024-03-05T21:30:09.856Z,6.55
2024-03-05T21:32:37.361Z,5.82
2024-03-05T21:35:09.493Z,6.53
2024-03-05T21:37:41.331Z,6.95
2024-03-05T21:40:14.061Z,6.75
2024-03-05T21:42:42.578Z,6.78
2024-03-05T21:45:12.787Z,6.45
2024-03-05T21:47:39.904Z,6.53
2024-03-05T21:50:08.777Z,6.63
2024-03-05T21:52:37.467Z,6.25
2024-03-05T21:55:08.186Z,6.15
2024-03-05T22:00:12.913Z,5.70
2024-03-05T22:02:41.038Z,7.55
2024-03-05T22:05:10.121Z,8.27
2024-03-05T22:07:38.648Z,8.02
2024-03-05T22:10:07.722Z,7.78
2024-03-05T22:12:38.203Z,8.48
2024-03-05T22:17:34.373Z,8.43
2024-03-05T22:20:01.471Z,8.35
2024-03-05T22:22:28.801Z,8.18
2024-03-05T22:24:58.048Z,6.85
2024-03-05T22:27:25.144Z,7.00
2024-03-05T22:29:52.313Z,6.63
2024-03-05T22:32:19.580Z,6.78
2024-03-05T22:34:46.720Z,6.68
2024-03-05T22:37:15.106Z,7.82
2024-03-05T22:39:42.269Z,7.38
2024-03-05T22:42:11.082Z,7.50
2024-03-05T22:44:39.413Z,8.10
2024-03-05T22:47:07.132Z,7.22
2024-03-05T22:49:34.502Z,7.40
2024-03-05T22:52:01.866Z,8.50
2024-03-05T22:54:29.094Z,7.60
2024-03-05T22:56:56.136Z,8.07
2024-03-05T22:59:24.664Z,8.30
2024-03-05T23:01:51.739Z,8.55
2024-03-05T23:04:19.853Z,9.18
2024-03-05T23:06:48.734Z,8.82
2024-03-05T23:09:16.646Z,8.93
2024-03-05T23:11:46.640Z,8.80
2024-03-05T23:14:15.323Z,8.35
2024-03-05T23:16:43.904Z,8.95
2024-03-05T23:19:12.407Z,8.63
2024-03-05T23:21:40.353Z,8.10
2024-03-05T23:24:10.198Z,9.20
2024-03-05T23:26:37.619Z,8.80
2024-03-05T23:29:04.866Z,9.25
2024-03-05T23:31:32.065Z,9.65
2024-03-05T23:34:01.066Z,10.82
2024-03-05T23:36:28.127Z,10.88
2024-03-05T23:38:55.293Z,9.82
2024-03-05T23:41:29.094Z,9.98
2024-03-05T23:43:59.871Z,10.02
2024-03-05T23:46:26.992Z,8.85
2024-03-05T23:48:54.086Z,9.73
2024-03-05T23:51:22.510Z,9.77
2024-03-05T23:53:49.570Z,9.45
2024-03-05T23:56:16.940Z,9.43
2024-03-05T23:58:44.239Z,8.80
